createdAt,value
2023-08-15T00:00:00.608Z,21.11
2023-08-15T00:01:03.530Z,21.10
2023-08-15T00:02:06.316Z,21.10
2023-08-15T00:03:08.973Z,21.09
2023-08-15T00:04:11.644Z,21.08
2023-08-15T00:05:14.401Z,21.08
2023-08-15T00:06:18.559Z,21.07
2023-08-15T00:07:21.290Z,21.05
2023-08-15T00:08:24.107Z,21.04
2023-08-15T00:09:26.931Z,21.03
2023-08-15T00:10:29.520Z,21.02
2023-08-15T00:11:32.138Z,21.01
2023-08-15T00:12:34.709Z,21.00
2023-08-15T00:13:37.398Z,20.99
2023-08-15T00:14:40.029Z,20.98
2023-08-15T00:15:42.741Z,20.96
2023-08-15T00:16:45.400Z,20.95
2023-08-15T00:17:48.053Z,20.93
2023-08-15T00:18:50.854Z,20.91
2023-08-15T00:19:53.441Z,20.89
2023-08-15T00:20:56.052Z,20.87
2023-08-15T00:21:58.698Z,20.85
2023-08-15T00:23:01.537Z,20.82
2023-08-15T00:24:04.423Z,20.80
2023-08-15T00:25:07.254Z,20.77
2023-08-15T00:26:09.961Z,20.75
2023-08-15T00:27:12.580Z,20.73
2023-08-15T00:28:15.200Z,20.71
2023-08-15T00:29:17.788Z,20.69
2023-08-15T00:30:20.555Z,20.67
2023-08-15T00:31:23.182Z,20.65
2023-08-15T00:32:25.805Z,20.63
2023-08-15T00:33:28.397Z,20.61
2023-08-15T00:34:31.040Z,20.59
2023-08-15T00:35:34.201Z,20.57
2023-08-15T00:36:37.030Z,20.55
2023-08-15T00:37:39.689Z,20.53
2023-08-15T00:38:45.093Z,20.51
2023-08-15T00:39:47.742Z,20.49
2023-08-15T00:40:50.358Z,20.47
2023-08-15T00:41:52.947Z,20.45
2023-08-15T00:42:55.574Z,20.43
2023-08-15T00:43:59.573Z,20.42
2023-08-15T00:45:02.308Z,20.40
2023-08-15T00:46:07.512Z,20.39
2023-08-15T00:47:10.310Z,20.38
2023-08-15T00:48:13.421Z,20.37
2023-08-15T00:49:16.079Z,20.35
2023-08-15T00:50:18.953Z,20.34
2023-08-15T00:51:21.714Z,20.33
2023-08-15T00:52:24.405Z,20.32
2023-08-15T00:53:28.943Z,20.30
2023-08-15T00:54:32.344Z,20.29
2023-08-15T00:55:35.220Z,20.27
2023-08-15T00:56:37.853Z,20.26
2023-08-15T00:57:40.448Z,20.25
2023-08-15T00:58:43.605Z,20.24
2023-08-15T00:59:46.562Z,20.23
2023-08-15T01:00:49.236Z,20.22
2023-08-15T01:01:51.963Z,20.20
2023-08-15T01:02:55.017Z,20.18
2023-08-15T01:03:58.004Z,20.16
2023-08-15T01:05:00.699Z,20.14
2023-08-15T01:06:03.319Z,20.13
2023-08-15T01:07:06.189Z,20.11
2023-08-15T01:08:08.833Z,20.10
2023-08-15T01:09:11.488Z,20.09
2023-08-15T01:10:14.119Z,20.08
2023-08-15T01:11:16.889Z,20.07
2023-08-15T01:12:32.185Z,20.06
2023-08-15T01:13:40.701Z,20.05
2023-08-15T01:14:51.218Z,20.04
2023-08-15T01:15:53.970Z,20.04
2023-08-15T01:16:58.138Z,20.03
2023-08-15T01:18:09.657Z,20.02
2023-08-15T01:19:27.360Z,20.01
2023-08-15T01:20:33.748Z,19.99
2023-08-15T01:21:41.028Z,19.98
2023-08-15T01:22:45.900Z,19.97
2023-08-15T01:23:48.745Z,19.96
2023-08-15T01:24:51.908Z,19.96
2023-08-15T01:25:57.647Z,19.96
2023-08-15T01:27:00.229Z,19.95
2023-08-15T01:28:03.854Z,19.94
2023-08-15T01:29:06.513Z,19.93
2023-08-15T01:30:09.550Z,19.92
2023-08-15T01:31:15.194Z,19.91
2023-08-15T01:32:49.677Z,19.88
2023-08-15T01:34:03.123Z,19.87
2023-08-15T01:35:42.665Z,19.85
2023-08-15T01:36:48.185Z,19.83
2023-08-15T01:37:57.037Z,19.82
2023-08-15T01:39:05.160Z,19.81
2023-08-15T01:40:11.293Z,19.80
2023-08-15T01:41:16.774Z,19.78
2023-08-15T01:42:22.951Z,19.77
2023-08-15T01:43:26.156Z,19.76
2023-08-15T01:44:30.832Z,19.75
2023-08-15T01:45:34.798Z,19.75
2023-08-15T01:46:37.615Z,19.74
2023-08-15T01:47:40.280Z,19.73
2023-08-15T01:48:43.698Z,19.72
2023-08-15T01:49:46.322Z,19.71
2023-08-15T01:50:48.911Z,19.70
2023-08-15T01:51:52.116Z,19.69
2023-08-15T01:52:55.041Z,19.69
2023-08-15T01:53:57.650Z,19.68
2023-08-15T01:55:00.281Z,19.67
2023-08-15T01:56:03.110Z,19.67
2023-08-15T01:57:05.713Z,19.66
2023-08-15T01:58:08.377Z,19.65
2023-08-15T01:59:52.161Z,19.64
2023-08-15T02:00:54.791Z,19.63
2023-08-15T02:01:57.463Z,19.62
2023-08-15T02:03:00.297Z,19.61
2023-08-15T02:04:02.982Z,19.60
2023-08-15T02:05:06.108Z,19.59
2023-08-15T02:06:09.357Z,19.58
2023-08-15T02:07:12.035Z,19.56
2023-08-15T02:08:14.635Z,19.54
2023-08-15T02:09:17.937Z,19.53
2023-08-15T02:10:20.584Z,19.52
2023-08-15T02:11:23.192Z,19.51
2023-08-15T02:12:25.794Z,19.50
2023-08-15T02:13:31.922Z,19.49
2023-08-15T02:14:34.608Z,19.48
2023-08-15T02:15:37.264Z,19.47
2023-08-15T02:16:39.964Z,19.47
2023-08-15T02:17:42.609Z,19.46
2023-08-15T02:18:45.276Z,19.46
2023-08-15T02:19:47.964Z,19.46
2023-08-15T02:20:50.614Z,19.45
2023-08-15T02:21:53.228Z,19.45
2023-08-15T02:22:55.803Z,19.45
2023-08-15T02:23:58.418Z,19.46
2023-08-15T02:25:01.128Z,19.46
2023-08-15T02:26:04.382Z,19.46
2023-08-15T02:27:07.046Z,19.46
2023-08-15T02:28:09.862Z,19.47
2023-08-15T02:29:14.450Z,19.47
2023-08-15T02:30:17.131Z,19.47
2023-08-15T02:31:19.806Z,19.48
2023-08-15T02:32:22.504Z,19.48
2023-08-15T02:33:25.202Z,19.48
2023-08-15T02:34:27.832Z,19.48
2023-08-15T02:35:30.456Z,19.48
2023-08-15T02:36:33.046Z,19.48
2023-08-15T02:37:35.859Z,19.48
2023-08-15T02:38:38.500Z,19.48
2023-08-15T02:39:41.108Z,19.48
2023-08-15T02:40:44.230Z,19.47
2023-08-15T02:41:46.892Z,19.47
2023-08-15T02:42:49.533Z,19.46
2023-08-15T02:43:52.156Z,19.45
2023-08-15T02:44:55.589Z,19.45
2023-08-15T02:45:58.631Z,19.45
2023-08-15T02:47:01.268Z,19.44
2023-08-15T02:48:04.196Z,19.44
2023-08-15T02:49:07.156Z,19.43
2023-08-15T02:50:09.979Z,19.43
2023-08-15T02:51:12.593Z,19.43
2023-08-15T02:52:15.239Z,19.43
2023-08-15T02:53:17.879Z,19.42
2023-08-15T02:54:20.478Z,19.42
2023-08-15T02:55:23.077Z,19.41
2023-08-15T02:56:25.782Z,19.41
2023-08-15T02:57:28.385Z,19.41
2023-08-15T02:58:30.967Z,19.41
2023-08-15T02:59:33.588Z,19.41
2023-08-15T03:00:37.048Z,19.40
2023-08-15T03:01:39.738Z,19.40
2023-08-15T03:02:42.417Z,19.40
2023-08-15T03:03:45.182Z,19.40
2023-08-15T03:04:47.817Z,19.39
2023-08-15T03:05:50.411Z,19.38
2023-08-15T03:06:53.058Z,19.37
2023-08-15T03:07:55.697Z,19.37
2023-08-15T03:08:58.769Z,19.35
2023-08-15T03:10:01.418Z,19.35
2023-08-15T03:11:04.016Z,19.34
2023-08-15T03:12:06.703Z,19.34
2023-08-15T03:13:09.343Z,19.33
2023-08-15T03:14:11.976Z,19.33
2023-08-15T03:15:14.573Z,19.32
2023-08-15T03:16:17.209Z,19.31
2023-08-15T03:17:20.759Z,19.31
2023-08-15T03:18:23.662Z,19.30
2023-08-15T03:19:26.310Z,19.29
2023-08-15T03:20:30.708Z,19.28
2023-08-15T03:21:33.325Z,19.28
2023-08-15T03:22:35.950Z,19.27
2023-08-15T03:23:38.661Z,19.27
2023-08-15T03:24:41.755Z,19.26
2023-08-15T03:25:44.391Z,19.25
2023-08-15T03:26:47.066Z,19.24
2023-08-15T03:27:49.684Z,19.23
2023-08-15T03:28:53.490Z,19.23
2023-08-15T03:29:56.157Z,19.23
2023-08-15T03:30:58.819Z,19.22
2023-08-15T03:32:01.459Z,19.22
2023-08-15T03:33:04.353Z,19.21
2023-08-15T03:34:07.053Z,19.20
2023-08-15T03:35:09.696Z,19.20
2023-08-15T03:36:12.347Z,19.20
2023-08-15T03:37:14.972Z,19.20
2023-08-15T03:38:19.773Z,19.20
2023-08-15T03:39:22.419Z,19.20
2023-08-15T03:40:25.052Z,19.20
2023-08-15T03:41:27.648Z,19.20
2023-08-15T03:42:30.269Z,19.20
2023-08-15T03:43:33.933Z,19.20
2023-08-15T03:44:36.596Z,19.20
2023-08-15T03:45:40.019Z,19.20
2023-08-15T03:46:42.669Z,19.20
2023-08-15T03:47:45.346Z,19.20
2023-08-15T03:48:48.253Z,19.20
2023-08-15T03:49:50.897Z,19.20
2023-08-15T03:50:55.832Z,19.21
2023-08-15T03:51:58.457Z,19.21
2023-08-15T03:53:01.710Z,19.21
2023-08-15T03:54:04.600Z,19.21
2023-08-15T03:55:07.439Z,19.22
2023-08-15T03:56:10.032Z,19.22
2023-08-15T03:57:12.682Z,19.22
2023-08-15T03:58:15.309Z,19.22
2023-08-15T03:59:17.979Z,19.23
2023-08-15T04:00:20.670Z,19.23
2023-08-15T04:01:23.319Z,19.23
2023-08-15T04:02:25.997Z,19.24
2023-08-15T04:03:28.800Z,19.24
2023-08-15T04:04:31.465Z,19.25
2023-08-15T04:05:34.055Z,19.26
2023-08-15T04:06:36.671Z,19.27
2023-08-15T04:07:40.201Z,19.28
2023-08-15T04:08:42.869Z,19.30
2023-08-15T04:09:45.540Z,19.32
2023-08-15T04:10:48.571Z,19.34
2023-08-15T04:11:51.182Z,19.36
2023-08-15T04:12:53.793Z,19.39
2023-08-15T04:13:56.425Z,19.41
2023-08-15T04:14:59.079Z,19.43
2023-08-15T04:16:01.724Z,19.46
2023-08-15T04:17:06.513Z,19.48
2023-08-15T04:18:10.334Z,19.51
2023-08-15T04:19:13.012Z,19.53
2023-08-15T04:20:15.644Z,19.55
2023-08-15T04:21:18.647Z,19.57
2023-08-15T04:22:21.257Z,19.59
2023-08-15T04:23:23.901Z,19.62
2023-08-15T04:24:26.511Z,19.66
2023-08-15T04:25:31.706Z,19.67
2023-08-15T04:26:34.550Z,19.70
2023-08-15T04:27:38.336Z,19.73
2023-08-15T04:28:40.974Z,19.75
2023-08-15T04:29:44.200Z,19.76
2023-08-15T04:30:46.818Z,19.77
2023-08-15T04:31:49.546Z,19.79
2023-08-15T04:32:52.206Z,19.79
2023-08-15T04:33:54.836Z,19.80
2023-08-15T04:34:58.258Z,19.81
2023-08-15T04:36:00.990Z,19.83
2023-08-15T04:37:03.649Z,19.85
2023-08-15T04:38:06.469Z,19.88
2023-08-15T04:39:09.097Z,19.90
2023-08-15T04:40:14.076Z,19.92
2023-08-15T04:41:18.491Z,19.93
2023-08-15T04:42:21.667Z,19.94
2023-08-15T04:43:24.264Z,19.96
2023-08-15T04:44:26.896Z,19.98
2023-08-15T04:45:29.558Z,20.00
2023-08-15T04:46:32.233Z,20.03
2023-08-15T04:47:35.365Z,20.05
2023-08-15T04:48:38.014Z,20.08
2023-08-15T04:49:40.619Z,20.11
2023-08-15T04:50:43.246Z,20.14
2023-08-15T04:51:45.850Z,20.18
2023-08-15T04:52:48.784Z,20.23
2023-08-15T04:53:51.417Z,20.29
2023-08-15T04:54:54.114Z,20.36
2023-08-15T04:55:56.798Z,20.44
2023-08-15T04:56:59.480Z,20.53
2023-08-15T04:58:02.227Z,20.62
2023-08-15T04:59:04.930Z,20.73
2023-08-15T05:00:10.061Z,20.85
2023-08-15T05:01:13.107Z,20.95
2023-08-15T05:02:15.836Z,21.08
2023-08-15T05:03:18.460Z,21.22
2023-08-15T05:04:21.050Z,21.39
2023-08-15T05:05:24.837Z,21.56
2023-08-15T05:06:27.509Z,21.78
2023-08-15T05:07:30.159Z,22.01
2023-08-15T05:08:34.889Z,22.23
2023-08-15T05:09:38.477Z,22.44
2023-08-15T05:10:41.118Z,22.64
2023-08-15T05:11:47.081Z,22.87
2023-08-15T05:12:49.722Z,23.07
2023-08-15T05:13:52.379Z,23.25
2023-08-15T05:14:55.006Z,23.47
2023-08-15T05:15:57.695Z,23.68
2023-08-15T05:17:00.325Z,23.95
2023-08-15T05:18:03.110Z,24.14
2023-08-15T05:19:05.795Z,24.31
2023-08-15T05:20:09.974Z,24.46
2023-08-15T05:21:12.557Z,24.64
2023-08-15T05:22:15.177Z,24.80
2023-08-15T05:23:17.809Z,24.91
2023-08-15T05:24:21.259Z,25.02
2023-08-15T05:25:23.932Z,25.18
2023-08-15T05:26:26.540Z,25.33
2023-08-15T05:27:29.196Z,25.42
2023-08-15T05:28:31.828Z,25.53
2023-08-15T05:29:34.467Z,25.62
2023-08-15T05:30:37.302Z,25.72
2023-08-15T05:31:39.928Z,25.88
2023-08-15T05:32:42.558Z,26.01
2023-08-15T05:33:45.217Z,26.10
2023-08-15T05:34:47.807Z,26.23
2023-08-15T05:35:50.513Z,26.34
2023-08-15T05:36:53.154Z,26.44
2023-08-15T05:37:55.978Z,26.52
2023-08-15T05:38:58.702Z,26.58
2023-08-15T05:40:04.246Z,26.66
2023-08-15T05:41:07.538Z,26.74
2023-08-15T05:42:10.139Z,26.82
2023-08-15T05:43:12.740Z,26.89
2023-08-15T05:44:15.335Z,26.97
2023-08-15T05:45:18.070Z,27.07
2023-08-15T05:46:20.734Z,27.17
2023-08-15T05:47:23.567Z,27.25
2023-08-15T05:48:26.306Z,27.32
2023-08-15T05:49:28.938Z,27.42
2023-08-15T05:50:31.602Z,27.51
2023-08-15T05:51:34.210Z,27.59
2023-08-15T05:52:36.959Z,27.67
2023-08-15T05:53:39.579Z,27.75
2023-08-15T05:54:42.301Z,27.84
2023-08-15T05:55:44.888Z,27.94
2023-08-15T05:56:47.536Z,28.02
2023-08-15T05:57:50.133Z,28.16
2023-08-15T05:58:52.731Z,28.27
2023-08-15T05:59:55.391Z,28.34
2023-08-15T06:00:58.006Z,28.42
2023-08-15T06:02:00.652Z,28.47
2023-08-15T06:03:03.396Z,28.51
2023-08-15T06:04:06.265Z,28.54
2023-08-15T06:05:09.070Z,28.60
2023-08-15T06:06:11.725Z,28.65
2023-08-15T06:07:14.403Z,28.69
2023-08-15T06:08:17.014Z,28.73
2023-08-15T06:09:19.677Z,28.76
2023-08-15T06:10:22.350Z,28.78
2023-08-15T06:11:24.973Z,28.83
2023-08-15T06:12:27.606Z,28.87
2023-08-15T06:13:30.356Z,28.92
2023-08-15T06:14:33.570Z,28.95
2023-08-15T06:15:36.495Z,28.97
2023-08-15T06:16:39.188Z,28.99
2023-08-15T06:17:43.230Z,29.04
2023-08-15T06:18:45.878Z,29.09
2023-08-15T06:19:48.510Z,29.14
2023-08-15T06:20:51.178Z,29.18
2023-08-15T06:21:53.789Z,29.21
2023-08-15T06:22:56.608Z,29.23
2023-08-15T06:23:59.247Z,29.24
2023-08-15T06:25:01.820Z,29.29
2023-08-15T06:26:04.961Z,29.36
2023-08-15T06:27:07.614Z,29.40
2023-08-15T06:28:10.502Z,29.43
2023-08-15T06:29:13.178Z,29.48
2023-08-15T06:30:15.744Z,29.52
2023-08-15T06:31:18.449Z,29.57
2023-08-15T06:32:27.922Z,29.65
2023-08-15T06:33:30.524Z,29.72
2023-08-15T06:34:33.175Z,29.76
2023-08-15T06:35:35.805Z,29.82
2023-08-15T06:36:38.455Z,29.88
2023-08-15T06:37:41.076Z,29.93
2023-08-15T06:38:43.713Z,29.98
2023-08-15T06:39:46.350Z,30.01
2023-08-15T06:40:49.504Z,30.04
2023-08-15T06:41:52.121Z,30.07
2023-08-15T06:42:54.704Z,30.12
2023-08-15T06:43:57.294Z,30.17
2023-08-15T06:45:10.165Z,30.20
2023-08-15T06:46:12.914Z,30.21
2023-08-15T06:47:15.554Z,30.23
2023-08-15T06:48:18.206Z,30.24
2023-08-15T06:49:20.825Z,30.22
2023-08-15T06:50:23.559Z,30.19
2023-08-15T06:51:26.166Z,30.14
2023-08-15T06:52:28.849Z,30.05
2023-08-15T06:53:34.821Z,29.96
2023-08-15T06:54:37.648Z,29.90
2023-08-15T06:55:40.376Z,29.83
2023-08-15T06:56:43.248Z,29.80
2023-08-15T06:57:45.850Z,29.76
2023-08-15T06:58:48.426Z,29.71
2023-08-15T06:59:51.009Z,29.63
2023-08-15T07:00:54.052Z,29.55
2023-08-15T07:01:56.631Z,29.50
2023-08-15T07:02:59.322Z,29.44
2023-08-15T07:04:02.254Z,29.39
2023-08-15T07:05:05.577Z,29.36
2023-08-15T07:06:08.289Z,29.31
2023-08-15T07:07:10.901Z,29.27
2023-08-15T07:08:17.363Z,29.23
2023-08-15T07:09:19.990Z,29.19
2023-08-15T07:10:22.641Z,29.15
2023-08-15T07:11:25.437Z,29.12
2023-08-15T07:12:28.056Z,29.09
2023-08-15T07:13:30.746Z,29.04
2023-08-15T07:14:34.062Z,29.01
2023-08-15T07:15:37.018Z,28.98
2023-08-15T07:16:39.648Z,28.95
2023-08-15T07:17:42.680Z,28.93
2023-08-15T07:18:45.408Z,28.90
2023-08-15T07:19:48.004Z,28.88
2023-08-15T07:20:52.120Z,28.87
2023-08-15T07:21:54.848Z,28.85
2023-08-15T07:22:57.465Z,28.83
2023-08-15T07:24:00.104Z,28.81
2023-08-15T07:25:03.054Z,28.80
2023-08-15T07:26:05.674Z,28.81
2023-08-15T07:27:08.749Z,28.81
2023-08-15T07:28:11.775Z,28.80
2023-08-15T07:29:14.416Z,28.80
2023-08-15T07:30:17.276Z,28.80
2023-08-15T07:31:19.915Z,28.81
2023-08-15T07:32:22.882Z,28.82
2023-08-15T07:33:25.710Z,28.83
2023-08-15T07:34:28.383Z,28.85
2023-08-15T07:35:30.981Z,28.87
2023-08-15T07:36:33.622Z,28.88
2023-08-15T07:37:36.242Z,28.90
2023-08-15T07:38:38.834Z,28.92
2023-08-15T07:39:41.605Z,28.94
2023-08-15T07:40:45.221Z,28.96
2023-08-15T07:41:47.836Z,28.98
2023-08-15T07:42:51.219Z,28.99
2023-08-15T07:43:53.804Z,29.01
2023-08-15T07:44:56.420Z,29.02
2023-08-15T07:45:59.792Z,29.05
2023-08-15T07:47:03.173Z,29.07
2023-08-15T07:48:06.527Z,29.08
2023-08-15T07:49:09.221Z,29.09
2023-08-15T07:50:17.178Z,29.10
2023-08-15T07:51:19.816Z,29.12
2023-08-15T07:52:22.439Z,29.14
2023-08-15T07:53:25.977Z,29.16
2023-08-15T07:54:28.713Z,29.17
2023-08-15T07:55:33.643Z,29.19
2023-08-15T07:56:36.273Z,29.21
2023-08-15T07:57:39.371Z,29.22
2023-08-15T07:58:42.003Z,29.24
2023-08-15T07:59:44.626Z,29.27
2023-08-15T08:00:47.258Z,29.29
2023-08-15T08:01:49.901Z,29.30
2023-08-15T08:02:53.647Z,29.31
2023-08-15T08:03:57.076Z,29.32
2023-08-15T08:04:59.811Z,29.33
2023-08-15T08:06:05.774Z,29.34
2023-08-15T08:07:11.082Z,29.35
2023-08-15T08:08:16.774Z,29.37
2023-08-15T08:09:19.494Z,29.38
2023-08-15T08:10:22.078Z,29.41
2023-08-15T08:11:24.864Z,29.43
2023-08-15T08:12:28.869Z,29.45
2023-08-15T08:13:31.450Z,29.47
2023-08-15T08:14:35.523Z,29.49
2023-08-15T08:15:42.044Z,29.51
2023-08-15T08:16:45.103Z,29.52
2023-08-15T08:17:47.800Z,29.54
2023-08-15T08:18:50.372Z,29.56
2023-08-15T08:19:52.949Z,29.57
2023-08-15T08:20:56.519Z,29.58
2023-08-15T08:21:59.151Z,29.59
2023-08-15T08:23:01.725Z,29.61
2023-08-15T08:24:05.200Z,29.63
2023-08-15T08:25:14.848Z,29.66
2023-08-15T08:26:18.351Z,29.70
2023-08-15T08:27:20.986Z,29.72
2023-08-15T08:28:23.602Z,29.75
2023-08-15T08:29:26.204Z,29.78
2023-08-15T08:30:30.169Z,29.81
2023-08-15T08:31:34.146Z,29.84
2023-08-15T08:32:36.913Z,29.87
2023-08-15T08:33:39.496Z,29.89
2023-08-15T08:34:42.764Z,29.93
2023-08-15T08:35:45.415Z,29.98
2023-08-15T08:36:48.175Z,30.01
2023-08-15T08:37:50.962Z,30.05
2023-08-15T08:38:53.642Z,30.09
2023-08-15T08:39:56.315Z,30.10
2023-08-15T08:40:58.928Z,30.11
2023-08-15T08:42:01.997Z,30.12
2023-08-15T08:43:05.040Z,30.13
2023-08-15T08:44:07.675Z,30.15
2023-08-15T08:45:11.500Z,30.17
2023-08-15T08:46:14.444Z,30.21
2023-08-15T08:47:20.376Z,30.24
2023-08-15T08:48:23.566Z,30.28
2023-08-15T08:49:28.672Z,30.31
2023-08-15T08:50:32.266Z,30.34
2023-08-15T08:51:35.479Z,30.35
2023-08-15T08:52:42.559Z,30.36
2023-08-15T08:53:45.210Z,30.38
2023-08-15T08:55:57.255Z,30.42
2023-08-15T08:57:00.803Z,30.43
2023-08-15T08:58:05.094Z,30.44
2023-08-15T08:59:11.983Z,30.45
2023-08-15T09:00:16.103Z,30.46
2023-08-15T09:01:19.218Z,30.47
2023-08-15T09:02:23.781Z,30.49
2023-08-15T09:03:26.567Z,30.50
2023-08-15T09:04:29.225Z,30.53
2023-08-15T09:05:31.851Z,30.57
2023-08-15T09:06:34.434Z,30.60
2023-08-15T09:07:37.874Z,30.63
2023-08-15T09:08:41.258Z,30.66
2023-08-15T09:09:44.693Z,30.69
2023-08-15T09:10:47.281Z,30.72
2023-08-15T09:11:51.417Z,30.74
2023-08-15T09:12:59.505Z,30.76
2023-08-15T09:14:06.952Z,30.79
2023-08-15T09:15:11.190Z,30.83
2023-08-15T09:16:14.045Z,30.86
2023-08-15T09:17:24.985Z,30.89
2023-08-15T09:18:28.016Z,30.94
2023-08-15T09:19:30.658Z,30.98
2023-08-15T09:20:33.714Z,31.02
2023-08-15T09:21:36.353Z,31.07
2023-08-15T09:22:48.168Z,31.12
2023-08-15T09:23:52.969Z,31.18
2023-08-15T09:24:55.555Z,31.23
2023-08-15T09:25:58.267Z,31.30
2023-08-15T09:27:07.254Z,31.37
2023-08-15T09:28:09.892Z,31.41
2023-08-15T09:29:13.735Z,31.44
2023-08-15T09:30:18.455Z,31.48
2023-08-15T09:31:21.246Z,31.52
2023-08-15T09:32:23.887Z,31.56
2023-08-15T09:33:26.506Z,31.60
2023-08-15T09:34:29.185Z,31.64
2023-08-15T09:35:35.431Z,31.67
2023-08-15T09:36:40.230Z,31.72
2023-08-15T09:37:48.159Z,31.77
2023-08-15T09:38:57.579Z,31.81
2023-08-15T09:40:00.539Z,31.84
2023-08-15T09:41:03.785Z,31.88
2023-08-15T09:42:06.953Z,31.93
2023-08-15T09:43:15.607Z,31.97
2023-08-15T09:44:34.586Z,32.01
2023-08-15T09:45:38.426Z,32.06
2023-08-15T09:46:43.281Z,32.09
2023-08-15T09:47:46.651Z,32.12
2023-08-15T09:48:50.543Z,32.16
2023-08-15T09:49:54.368Z,32.18
2023-08-15T09:50:58.017Z,32.22
2023-08-15T09:52:03.635Z,32.25
2023-08-15T09:53:06.371Z,32.29
2023-08-15T09:54:09.638Z,32.32
2023-08-15T09:55:14.406Z,32.35
2023-08-15T09:56:19.209Z,32.39
2023-08-15T09:57:22.389Z,32.43
2023-08-15T09:58:25.175Z,32.48
2023-08-15T09:59:27.781Z,32.51
2023-08-15T10:00:31.268Z,32.55
2023-08-15T10:01:34.742Z,32.59
2023-08-15T10:02:44.147Z,32.62
2023-08-15T10:03:47.775Z,32.66
2023-08-15T10:05:07.599Z,32.69
2023-08-15T10:06:14.145Z,32.71
2023-08-15T10:07:17.938Z,32.72
2023-08-15T10:08:21.730Z,32.72
2023-08-15T10:09:26.355Z,32.73
2023-08-15T10:10:31.640Z,32.76
2023-08-15T10:11:38.044Z,32.80
2023-08-15T10:12:41.837Z,32.83
2023-08-15T10:13:46.422Z,32.87
2023-08-15T10:14:49.950Z,32.91
2023-08-15T10:15:54.353Z,32.94
2023-08-15T10:16:57.258Z,32.96
2023-08-15T10:18:00.241Z,32.97
2023-08-15T10:19:03.278Z,32.98
2023-08-15T10:20:07.704Z,32.99
2023-08-15T10:21:10.473Z,33.01
2023-08-15T10:22:19.109Z,33.01
2023-08-15T10:23:25.505Z,33.01
2023-08-15T10:24:30.578Z,33.02
2023-08-15T10:25:36.471Z,33.04
2023-08-15T10:26:39.925Z,33.06
2023-08-15T10:27:47.402Z,33.07
2023-08-15T10:28:50.499Z,33.10
2023-08-15T10:30:00.032Z,33.12
2023-08-15T10:31:02.836Z,33.14
2023-08-15T10:32:06.340Z,33.17
2023-08-15T10:33:15.016Z,33.20
2023-08-15T10:34:19.308Z,33.25
2023-08-15T10:35:32.364Z,33.31
2023-08-15T10:36:35.889Z,33.35
2023-08-15T10:37:40.226Z,33.39
2023-08-15T10:38:45.371Z,33.41
2023-08-15T10:40:12.483Z,33.44
2023-08-15T10:41:16.625Z,33.47
2023-08-15T10:42:19.291Z,33.49
2023-08-15T10:43:26.308Z,33.50
2023-08-15T10:44:28.938Z,33.53
2023-08-15T10:45:32.503Z,33.56
2023-08-15T10:46:36.851Z,33.61
2023-08-15T10:47:47.103Z,33.65
2023-08-15T10:49:58.413Z,33.69
2023-08-15T10:51:00.996Z,33.71
2023-08-15T10:52:03.711Z,33.74
2023-08-15T10:53:07.191Z,33.76
2023-08-15T10:54:17.740Z,33.79
2023-08-15T10:55:20.373Z,33.80
2023-08-15T10:56:25.239Z,33.81
2023-08-15T10:57:28.194Z,33.82
2023-08-15T10:58:31.705Z,33.86
2023-08-15T10:59:37.341Z,33.88
2023-08-15T11:00:41.559Z,33.88
2023-08-15T11:01:46.241Z,33.87
2023-08-15T11:02:49.365Z,33.87
2023-08-15T11:03:53.877Z,33.87
2023-08-15T11:04:56.537Z,33.88
2023-08-15T11:06:14.850Z,33.89
2023-08-15T11:07:27.560Z,33.89
2023-08-15T11:08:30.163Z,33.88
2023-08-15T11:09:32.989Z,33.87
2023-08-15T11:10:35.708Z,33.86
2023-08-15T11:11:38.335Z,33.86
2023-08-15T11:12:50.924Z,33.86
2023-08-15T11:13:55.245Z,33.86
2023-08-15T11:14:58.229Z,33.89
2023-08-15T11:16:00.915Z,33.91
2023-08-15T11:17:03.654Z,33.91
2023-08-15T11:18:06.335Z,33.92
2023-08-15T11:19:09.094Z,33.93
2023-08-15T11:20:12.064Z,33.95
2023-08-15T11:21:15.984Z,33.97
2023-08-15T11:22:18.616Z,33.99
2023-08-15T11:23:22.466Z,34.00
2023-08-15T11:24:25.053Z,34.01
2023-08-15T11:25:27.692Z,34.01
2023-08-15T11:26:30.459Z,34.02
2023-08-15T11:27:33.090Z,34.03
2023-08-15T11:28:36.488Z,34.05
2023-08-15T11:29:39.076Z,34.05
2023-08-15T11:30:42.340Z,34.06
2023-08-15T11:31:45.251Z,34.06
2023-08-15T11:32:47.907Z,34.06
2023-08-15T11:33:52.836Z,34.05
2023-08-15T11:34:56.963Z,34.05
2023-08-15T11:36:01.231Z,34.06
2023-08-15T11:37:03.806Z,34.06
2023-08-15T11:38:11.401Z,34.06
2023-08-15T11:39:14.352Z,34.05
2023-08-15T11:40:17.156Z,34.06
2023-08-15T11:41:19.923Z,34.05
2023-08-15T11:42:23.288Z,34.04
2023-08-15T11:43:30.301Z,34.03
2023-08-15T11:44:32.925Z,34.01
2023-08-15T11:45:35.673Z,33.99
2023-08-15T11:46:53.060Z,33.98
2023-08-15T11:48:03.984Z,33.95
2023-08-15T11:49:06.643Z,33.94
2023-08-15T11:50:10.891Z,33.93
2023-08-15T11:51:20.908Z,33.92
2023-08-15T11:52:23.902Z,33.91
2023-08-15T11:53:27.118Z,33.90
2023-08-15T11:54:29.757Z,33.89
2023-08-15T11:55:34.568Z,33.89
2023-08-15T11:56:53.254Z,33.89
2023-08-15T11:57:56.048Z,33.89
2023-08-15T11:59:01.593Z,33.87
2023-08-15T12:01:13.349Z,33.82
2023-08-15T12:02:15.997Z,33.81
2023-08-15T12:03:18.733Z,33.81
2023-08-15T12:04:21.380Z,33.79
2023-08-15T12:05:24.035Z,33.78
2023-08-15T12:06:27.188Z,33.77
2023-08-15T12:07:31.741Z,33.76
2023-08-15T12:08:34.480Z,33.74
2023-08-15T12:09:37.285Z,33.73
2023-08-15T12:10:42.042Z,33.72
2023-08-15T12:11:45.094Z,33.72
2023-08-15T12:12:48.718Z,33.70
2023-08-15T12:13:51.406Z,33.69
2023-08-15T12:14:54.000Z,33.69
2023-08-15T12:15:56.657Z,33.69
2023-08-15T12:16:59.257Z,33.69
2023-08-15T12:18:01.896Z,33.68
2023-08-15T12:19:04.523Z,33.67
2023-08-15T12:20:17.316Z,33.68
2023-08-15T12:21:19.899Z,33.67
2023-08-15T12:22:22.681Z,33.67
2023-08-15T12:23:28.624Z,33.67
2023-08-15T12:24:31.944Z,33.67
2023-08-15T12:25:34.558Z,33.68
2023-08-15T12:26:37.194Z,33.68
2023-08-15T12:27:39.804Z,33.68
2023-08-15T12:28:42.532Z,33.67
2023-08-15T12:30:12.984Z,33.67
2023-08-15T12:31:07.940Z,33.66
2023-08-15T12:32:10.605Z,33.64
2023-08-15T12:33:16.068Z,33.65
2023-08-15T12:34:23.754Z,33.64
2023-08-15T12:35:26.377Z,33.63
2023-08-15T12:36:29.006Z,33.62
2023-08-15T12:37:31.965Z,33.60
2023-08-15T12:38:34.532Z,33.61
2023-08-15T12:40:30.451Z,33.61
2023-08-15T12:41:34.057Z,33.59
2023-08-15T12:42:36.679Z,33.58
2023-08-15T12:43:39.541Z,33.57
2023-08-15T12:44:43.363Z,33.56
2023-08-15T12:45:46.569Z,33.55
2023-08-15T12:46:49.320Z,33.56
2023-08-15T12:47:52.024Z,33.57
2023-08-15T12:48:57.591Z,33.58
2023-08-15T12:50:00.685Z,33.58
2023-08-15T12:51:03.251Z,33.59
2023-08-15T12:52:07.450Z,33.61
2023-08-15T12:53:10.681Z,33.63
2023-08-15T12:54:13.313Z,33.65
2023-08-15T12:55:16.015Z,33.66
2023-08-15T12:56:19.173Z,33.69
2023-08-15T12:57:21.813Z,33.73
2023-08-15T12:58:24.438Z,33.77
2023-08-15T12:59:27.398Z,33.80
2023-08-15T13:00:30.926Z,33.83
2023-08-15T13:01:33.820Z,33.86
2023-08-15T13:02:37.040Z,33.88
2023-08-15T13:03:39.627Z,33.89
2023-08-15T13:04:42.248Z,33.89
2023-08-15T13:05:44.839Z,33.88
2023-08-15T13:06:47.425Z,33.88
2023-08-15T13:07:51.158Z,33.89
2023-08-15T13:08:53.802Z,33.90
2023-08-15T13:09:56.418Z,33.91
2023-08-15T13:10:59.056Z,33.92
2023-08-15T13:12:02.514Z,33.94
2023-08-15T13:13:05.275Z,33.95
2023-08-15T13:14:07.915Z,33.96
2023-08-15T13:15:12.448Z,33.96
2023-08-15T13:16:15.184Z,33.96
2023-08-15T13:17:17.812Z,33.97
2023-08-15T13:18:20.500Z,33.97
2023-08-15T13:19:23.127Z,33.97
2023-08-15T13:20:26.013Z,33.99
2023-08-15T13:21:31.590Z,34.00
2023-08-15T13:22:34.228Z,34.01
2023-08-15T13:23:36.855Z,34.00
2023-08-15T13:24:39.515Z,34.00
2023-08-15T13:25:42.180Z,34.01
2023-08-15T13:26:44.761Z,34.02
2023-08-15T13:27:47.363Z,34.03
2023-08-15T13:28:50.117Z,34.06
2023-08-15T13:29:52.726Z,34.08
2023-08-15T13:30:55.419Z,34.09
2023-08-15T13:31:58.097Z,34.09
2023-08-15T13:33:01.124Z,34.10
2023-08-15T13:34:03.979Z,34.10
2023-08-15T13:35:06.731Z,34.11
2023-08-15T13:36:10.404Z,34.11
2023-08-15T13:37:12.962Z,34.10
2023-08-15T13:38:15.561Z,34.11
2023-08-15T13:39:18.210Z,34.12
2023-08-15T13:40:20.797Z,34.11
2023-08-15T13:41:23.753Z,34.09
2023-08-15T13:42:37.611Z,34.08
2023-08-15T13:43:42.198Z,34.06
2023-08-15T13:44:44.822Z,34.05